Time;durP1;ratioP1;P1;durP2;ratioP2;P2;SDS_P1;SDS_P2;PMS_P1;PMS_P2;Temp;Humidity;BMP_temperature;BMP_pressure;BME280_temperature;BME280_humidity;BME280_pressure;Samples;Min_cycle;Max_cycle;Signal;HPM_P1;HPM_P2
2022/04/25 00:01:03;;;;;;;;;;;6.50;1.00;;;;;;5072142;28;19920;-79
2022/04/25 00:03:28;;;;;;;;;;;6.50;1.00;;;;;;5072258;28;19912;-79
2022/04/25 00:05:54;;;;;;;;;;;6.60;1.00;;;;;;5073385;28;19909;-79
2022/04/25 00:08:19;;;;;;;;;;;6.80;1.00;;;;;;5068425;28;19912;-79
2022/04/25 00:10:46;;;;;;;;;;;6.80;1.00;;;;;;5070601;28;19921;-79
2022/04/25 00:13:13;;;;;;;;;;;6.80;1.00;;;;;;5071427;28;19921;-79
2022/04/25 00:15:39;;;;;;;;;;;6.80;1.00;;;;;;5068484;28;19958;-77
2022/04/25 00:18:04;;;;;;;;;;;6.80;1.00;;;;;;5070866;28;19916;-77
2022/04/25 00:20:30;;;;;;;;;;;6.80;1.00;;;;;;5071851;28;20339;-77
2022/04/25 00:22:55;;;;;;;;;;;6.80;1.00;;;;;;5073015;28;19920;-77
2022/04/25 00:25:21;;;;;;;;;;;6.70;1.00;;;;;;5071782;28;19923;-78
2022/04/25 00:27:46;;;;;;;;;;;6.70;1.00;;;;;;5072918;28;19912;-78
2022/04/25 00:30:12;;;;;;;;;;;6.60;1.00;;;;;;5065285;28;20382;-79
2022/04/25 00:32:37;;;;;;;;;;;6.70;1.00;;;;;;5072506;28;19917;-79
2022/04/25 00:35:04;;;;;;;;;;;6.70;1.00;;;;;;5070955;28;19924;-79
2022/04/25 00:37:29;;;;;;;;;;;6.70;1.00;;;;;;5076469;28;19913;-79
2022/04/25 00:39:55;;;;;;;;;;;6.70;1.00;;;;;;5076872;28;19915;-79
2022/04/25 00:42:20;;;;;;;;;;;6.60;1.00;;;;;;5073688;28;20279;-79
2022/04/25 00:44:46;;;;;;;;;;;6.60;1.00;;;;;;5071576;28;19913;-79
2022/04/25 00:47:11;;;;;;;;;;;6.70;1.00;;;;;;5075307;28;19966;-79
2022/04/25 00:49:37;;;;;;;;;;;6.60;1.00;;;;;;5073410;28;19994;-79
2022/04/25 00:52:03;;;;;;;;;;;6.50;1.00;;;;;;5068795;28;19981;-79
2022/04/25 00:54:32;;;;;;;;;;;6.60;1.00;;;;;;5074890;28;20277;-79
2022/04/25 00:56:58;;;;;;;;;;;6.50;1.00;;;;;;5076654;28;20152;-79
2022/04/25 00:59:24;;;;;;;;;;;6.60;1.00;;;;;;5071497;28;19916;-78
2022/04/25 01:01:52;;;;;;;;;;;6.60;1.00;;;;;;5068960;28;19951;-77
2022/04/25 01:04:17;;;;;;;;;;;6.60;1.00;;;;;;5076416;28;19919;-77
2022/04/25 01:06:43;;;;;;;;;;;6.50;1.00;;;;;;5074786;28;19920;-77
2022/04/25 01:09:08;;;;;;;;;;;6.50;1.00;;;;;;5076532;28;19908;-77
2022/04/25 01:11:34;;;;;;;;;;;6.50;1.00;;;;;;5107958;28;19920;-77
2022/04/25 01:14:09;;;;;;;;;;;6.40;1.00;;;;;;5076413;28;19940;-78
2022/04/25 01:16:35;;;;;;;;;;;6.40;1.00;;;;;;5106148;28;20367;-78
2022/04/25 01:19:00;;;;;;;;;;;6.30;1.00;;;;;;5074717;28;19919;-77
2022/04/25 01:21:27;;;;;;;;;;;6.30;1.00;;;;;;5063746;28;19919;-77
2022/04/25 01:29:21;;;;;;;;;;;6.20;1.00;;;;;;5076530;28;20344;-77
2022/04/25 01:31:46;;;;;;;;;;;6.20;1.00;;;;;;5074704;28;19974;-77
2022/04/25 01:34:12;;;;;;;;;;;6.20;1.00;;;;;;5074918;28;19965;-77
2022/04/25 01:36:37;;;;;;;;;;;6.10;1.00;;;;;;5074086;28;19912;-77
2022/04/25 01:39:02;;;;;;;;;;;6.00;1.00;;;;;;5072858;28;20011;-77
2022/04/25 01:41:28;;;;;;;;;;;6.60;1.00;;;;;;5073263;28;19913;-78
2022/04/25 01:43:53;;;;;;;;;;;5.90;1.00;;;;;;5072965;28;21280;-78
2022/04/25 01:46:19;;;;;;;;;;;5.80;1.00;;;;;;5075589;28;19974;-78
2022/04/25 01:48:44;;;;;;;;;;;5.80;1.00;;;;;;5075997;28;20405;-78
2022/04/25 01:51:10;;;;;;;;;;;5.90;1.00;;;;;;5074649;28;20318;-77
2022/04/25 01:53:36;;;;;;;;;;;5.80;1.00;;;;;;5075719;28;19962;-77
2022/04/25 01:56:01;;;;;;;;;;;5.70;1.00;;;;;;5073450;28;19913;-77
2022/04/25 01:58:27;;;;;;;;;;;5.70;1.00;;;;;;5068475;28;19912;-77
2022/04/25 02:00:53;;;;;;;;;;;5.60;1.00;;;;;;5069289;28;19935;-78
2022/04/25 02:03:19;;;;;;;;;;;5.50;1.00;;;;;;5075191;28;19913;-78
2022/04/25 02:05:44;;;;;;;;;;;5.50;1.00;;;;;;5073207;28;20016;-78
2022/04/25 02:08:10;;;;;;;;;;;5.50;1.00;;;;;;5066585;28;19919;-78
2022/04/25 02:10:35;;;;;;;;;;;5.40;1.00;;;;;;5074899;28;20358;-78
2022/04/25 02:13:01;;;;;;;;;;;5.40;1.00;;;;;;5075355;28;19913;-78
2022/04/25 02:15:26;;;;;;;;;;;6.70;1.00;;;;;;5075166;28;20291;-79
2022/04/25 02:17:52;;;;;;;;;;;5.30;1.00;;;;;;5070905;28;19999;-79
2022/04/25 02:20:17;;;;;;;;;;;5.20;1.00;;;;;;5074967;28;19988;-79
2022/04/25 02:22:43;;;;;;;;;;;5.20;1.00;;;;;;5075256;28;19916;-79
2022/04/25 02:25:09;;;;;;;;;;;5.00;1.00;;;;;;5075188;28;19982;-79
2022/04/25 02:27:34;;;;;;;;;;;5.10;1.00;;;;;;5070765;28;19935;-79
2022/04/25 02:30:00;;;;;;;;;;;5.10;1.00;;;;;;5089708;28;19919;-78
2022/04/25 02:32:27;;;;;;;;;;;5.10;1.00;;;;;;5074980;28;20007;-79
2022/04/25 02:34:54;;;;;;;;;;;5.10;1.00;;;;;;5077345;28;19922;-79
2022/04/25 02:37:20;;;;;;;;;;;5.10;1.00;;;;;;5073317;28;19912;-79
2022/04/25 02:39:45;;;;;;;;;;;5.00;1.00;;;;;;5077364;28;20405;-79
2022/04/25 02:42:11;;;;;;;;;;;5.00;1.00;;;;;;5074799;28;19908;-79
2022/04/25 02:44:36;;;;;;;;;;;5.00;1.00;;;;;;5070842;28;20363;-79
2022/04/25 02:47:02;;;;;;;;;;;4.80;1.00;;;;;;5074930;28;19952;-79
2022/04/25 02:49:27;;;;;;;;;;;4.80;1.00;;;;;;5073275;28;19927;-79
2022/04/25 02:51:53;;;;;;;;;;;4.80;1.00;;;;;;5074448;28;20088;-79
2022/04/25 02:54:18;;;;;;;;;;;4.70;1.00;;;;;;5070042;28;19919;-79
2022/04/25 02:56:44;;;;;;;;;;;4.80;1.00;;;;;;5072039;28;19912;-79
2022/04/25 02:59:09;;;;;;;;;;;4.70;1.00;;;;;;5073923;28;19989;-79
2022/04/25 03:01:39;;;;;;;;;;;4.60;1.00;;;;;;5074526;28;20001;-78
2022/04/25 03:04:04;;;;;;;;;;;4.70;1.00;;;;;;5073923;28;19913;-78
2022/04/25 03:06:32;;;;;;;;;;;4.60;1.00;;;;;;5072986;28;20283;-78
2022/04/25 03:08:58;;;;;;;;;;;4.50;1.00;;;;;;5070566;28;19958;-78
2022/04/25 03:11:25;;;;;;;;;;;4.50;1.00;;;;;;5074014;28;19960;-78
2022/04/25 03:13:52;;;;;;;;;;;4.40;1.00;;;;;;5073482;28;19920;-78
2022/04/25 03:16:18;;;;;;;;;;;4.50;1.00;;;;;;5074463;28;19961;-79
2022/04/25 03:18:43;;;;;;;;;;;4.50;1.00;;;;;;5072580;28;19920;-79
2022/04/25 03:21:09;;;;;;;;;;;4.50;1.00;;;;;;5074177;28;19916;-79
2022/04/25 03:23:36;;;;;;;;;;;4.60;1.00;;;;;;5070998;28;19935;-79
2022/04/25 03:26:02;;;;;;;;;;;4.50;1.00;;;;;;5063471;28;20007;-79
2022/04/25 03:28:27;;;;;;;;;;;4.70;1.00;;;;;;5072193;28;20007;-79
2022/04/25 03:30:53;;;;;;;;;;;4.80;1.00;;;;;;5073699;28;20338;-78
2022/04/25 03:33:19;;;;;;;;;;;4.90;1.00;;;;;;5071777;28;19912;-78
2022/04/25 03:35:46;;;;;;;;;;;4.80;1.00;;;;;;5073498;28;19913;-78
2022/04/25 03:38:12;;;;;;;;;;;4.90;1.00;;;;;;5073339;28;20351;-78
2022/04/25 03:40:38;;;;;;;;;;;5.10;1.00;;;;;;5071812;28;19943;-78
2022/04/25 03:43:07;;;;;;;;;;;5.10;1.00;;;;;;5070259;28;19960;-78
2022/04/25 03:45:33;;;;;;;;;;;5.20;1.00;;;;;;5067181;28;19912;-78
2022/04/25 03:47:59;;;;;;;;;;;5.30;1.00;;;;;;5072830;28;19913;-78
2022/04/25 03:50:24;;;;;;;;;;;5.30;1.00;;;;;;5073294;28;20339;-77
2022/04/25 03:52:50;;;;;;;;;;;5.30;1.00;;;;;;5064419;28;19916;-78
2022/04/25 03:58:01;;;;;;;;;;;5.30;1.00;;;;;;5072149;28;19915;-78
2022/04/25 04:00:30;;;;;;;;;;;5.40;1.00;;;;;;5067455;28;19912;-78
2022/04/25 04:02:58;;;;;;;;;;;5.40;1.00;;;;;;5072608;28;19913;-79
2022/04/25 04:05:24;;;;;;;;;;;5.90;1.00;;;;;;5072114;28;20364;-79
2022/04/25 04:07:49;;;;;;;;;;;5.60;1.00;;;;;;5076442;28;19912;-79
2022/04/25 04:10:16;;;;;;;;;;;5.70;1.00;;;;;;5061599;28;19913;-79
2022/04/25 04:12:42;;;;;;;;;;;5.70;1.00;;;;;;5072421;28;19916;-79
2022/04/25 04:15:07;;;;;;;;;;;5.90;1.00;;;;;;5073537;28;20282;-79
2022/04/25 04:17:33;;;;;;;;;;;5.90;1.00;;;;;;5072095;28;20092;-78
2022/04/25 04:19:59;;;;;;;;;;;6.00;1.00;;;;;;5068006;28;19983;-78
2022/04/25 04:22:25;;;;;;;;;;;6.00;1.00;;;;;;5105470;28;19959;-78
2022/04/25 04:24:51;;;;;;;;;;;6.10;1.00;;;;;;5073111;28;19916;-78
2022/04/25 04:27:17;;;;;;;;;;;6.10;1.00;;;;;;5073114;28;20008;-80
2022/04/25 04:29:43;;;;;;;;;;;6.10;1.00;;;;;;5071423;28;19947;-80
2022/04/25 04:32:09;;;;;;;;;;;6.30;1.00;;;;;;5069972;28;19923;-73
2022/04/25 04:34:35;;;;;;;;;;;6.30;1.00;;;;;;5073112;28;19913;-73
2022/04/25 04:37:01;;;;;;;;;;;6.40;1.00;;;;;;5067706;28;19912;-73
2022/04/25 04:39:27;;;;;;;;;;;6.40;1.00;;;;;;5072628;28;20252;-73
2022/04/25 04:41:53;;;;;;;;;;;6.50;1.00;;;;;;5073261;28;20557;-77
2022/04/25 04:44:18;;;;;;;;;;;6.40;1.00;;;;;;5068591;28;19913;-77
2022/04/25 04:46:44;;;;;;;;;;;6.30;1.00;;;;;;5072667;28;19916;-71
2022/04/25 04:49:09;;;;;;;;;;;6.30;1.00;;;;;;5070995;28;20641;-71
2022/04/25 04:51:35;;;;;;;;;;;6.30;1.00;;;;;;5072256;28;20279;-71
2022/04/25 04:54:02;;;;;;;;;;;6.30;1.00;;;;;;5072012;28;19927;-71
2022/04/25 04:56:29;;;;;;;;;;;6.40;1.00;;;;;;5072482;28;20279;-71
2022/04/25 04:58:54;;;;;;;;;;;6.50;1.00;;;;;;5066390;28;19970;-71
2022/04/25 05:01:20;;;;;;;;;;;6.50;1.00;;;;;;5072794;28;19913;-78
2022/04/25 05:03:46;;;;;;;;;;;6.60;1.00;;;;;;5072488;28;19956;-78
2022/04/25 05:06:33;;;;;;;;;;;6.60;1.00;;;;;;5080858;28;20283;-78
2022/04/25 05:08:59;;;;;;;;;;;6.70;1.00;;;;;;5084124;28;19908;-77
2022/04/25 05:11:39;;;;;;;;;;;6.80;1.00;;;;;;5072670;28;20352;-77
2022/04/25 05:14:10;;;;;;;;;;;6.90;1.00;;;;;;5070421;28;19912;-77
2022/04/25 05:17:02;;;;;;;;;;;7.10;1.00;;;;;;5070694;28;19913;-77
2022/04/25 05:19:32;;;;;;;;;;;7.20;1.00;;;;;;5073705;28;19909;-78
2022/04/25 05:22:14;;;;;;;;;;;7.30;1.00;;;;;;5076740;28;19948;-79
2022/04/25 05:24:40;;;;;;;;;;;7.30;1.00;;;;;;5109581;28;19916;-77
2022/04/25 05:27:21;;;;;;;;;;;7.50;1.00;;;;;;5076782;28;20271;-78
2022/04/25 05:30:14;;;;;;;;;;;7.60;1.00;;;;;;5076782;28;19909;-78
2022/04/25 05:32:44;;;;;;;;;;;7.80;1.00;;;;;;5075694;28;19916;-71
2022/04/25 05:35:11;;;;;;;;;;;7.90;1.00;;;;;;5073192;28;20029;-71
2022/04/25 05:37:38;;;;;;;;;;;8.00;1.00;;;;;;5070884;28;19917;-71
2022/04/25 05:40:04;;;;;;;;;;;8.10;1.00;;;;;;5061508;28;19952;-71
2022/04/25 05:42:29;;;;;;;;;;;8.30;1.00;;;;;;5083970;28;19912;-71
2022/04/25 05:44:55;;;;;;;;;;;8.40;1.00;;;;;;5076798;28;19940;-71
2022/04/25 05:47:26;;;;;;;;;;;8.40;1.00;;;;;;5076306;28;19912;-77
2022/04/25 05:52:36;;;;;;;;;;;8.80;1.00;;;;;;5060902;28;19986;-71
2022/04/25 05:55:02;;;;;;;;;;;9.00;1.00;;;;;;5075114;28;19940;-71
2022/04/25 05:57:28;;;;;;;;;;;9.10;1.00;;;;;;5071429;28;19909;-71
2022/04/25 05:59:54;;;;;;;;;;;9.40;1.00;;;;;;5067542;28;19919;-71
2022/04/25 06:02:19;;;;;;;;;;;9.50;1.00;;;;;;5064687;28;19918;-71
2022/04/25 06:04:45;;;;;;;;;;;9.50;1.00;;;;;;5074950;28;20325;-71
2022/04/25 06:07:11;;;;;;;;;;;;;;;;;;5075168;28;19948;-71
2022/04/25 06:09:37;;;;;;;;;;;9.80;1.00;;;;;;5074510;28;20283;-71
2022/04/25 06:12:02;;;;;;;;;;;9.90;1.00;;;;;;5074221;28;19920;-71
2022/04/25 06:14:30;;;;;;;;;;;;;;;;;;5074610;28;20007;-81
2022/04/25 06:16:57;;;;;;;;;;;10.20;1.00;;;;;;5073137;28;19958;-75
2022/04/25 06:19:23;;;;;;;;;;;;;;;;;;5073530;28;19942;-75
2022/04/25 06:21:48;;;;;;;;;;;10.40;1.00;;;;;;5074549;28;19923;-80
2022/04/25 06:24:14;;;;;;;;;;;10.50;1.00;;;;;;5075818;28;19919;-81
2022/04/25 06:26:50;;;;;;;;;;;14.50;1.00;;;;;;5075345;28;19909;-80
2022/04/25 06:29:16;;;;;;;;;;;10.70;1.00;;;;;;5075466;28;19916;-80
2022/04/25 06:31:56;;;;;;;;;;;15.50;1.00;;;;;;5075524;28;19912;-80
2022/04/25 06:34:22;;;;;;;;;;;11.10;1.00;;;;;;5074666;28;19916;-78
2022/04/25 06:36:50;;;;;;;;;;;11.20;1.00;;;;;;5074677;28;20279;-78
2022/04/25 06:39:16;;;;;;;;;;;11.30;1.00;;;;;;5074738;28;19908;-78
2022/04/25 06:41:42;;;;;;;;;;;13.40;1.00;;;;;;5068709;28;20272;-78
2022/04/25 06:44:07;;;;;;;;;;;11.80;1.00;;;;;;5069859;28;19917;-78
2022/04/25 06:46:33;;;;;;;;;;;12.80;1.00;;;;;;5061200;28;19919;-78
2022/04/25 06:51:42;;;;;;;;;;;12.60;1.00;;;;;;5061632;28;19915;-78
2022/04/25 06:54:08;;;;;;;;;;;12.90;1.00;;;;;;5074168;28;20271;-78
2022/04/25 06:56:33;;;;;;;;;;;13.70;1.00;;;;;;5074223;28;19916;-78
2022/04/25 06:58:59;;;;;;;;;;;13.20;1.00;;;;;;5072837;28;20360;-78
2022/04/25 07:01:24;;;;;;;;;;;13.30;1.00;;;;;;5106918;28;20355;-77
2022/04/25 07:03:50;;;;;;;;;;;13.40;1.00;;;;;;5107121;28;20007;-78
2022/04/25 07:06:15;;;;;;;;;;;13.60;99.90;;;;;;5072301;28;19908;-78
2022/04/25 07:08:41;;;;;;;;;;;13.80;1.00;;;;;;5074131;28;20275;-78
2022/04/25 07:11:06;;;;;;;;;;;14.10;99.90;;;;;;5073804;28;19920;-77
2022/04/25 07:13:32;;;;;;;;;;;14.00;99.90;;;;;;5074082;28;19909;-78
2022/04/25 07:15:57;;;;;;;;;;;14.10;99.90;;;;;;5074064;28;20386;-78
2022/04/25 07:18:38;;;;;;;;;;;14.10;99.90;;;;;;5102949;28;20375;-79
2022/04/25 07:29:46;;;;;;;;;;;14.40;99.90;;;;;;5073729;28;19966;-79
2022/04/25 07:32:12;;;;;;;;;;;14.50;99.90;;;;;;5073829;28;19947;-79
2022/04/25 07:34:39;;;;;;;;;;;14.50;99.90;;;;;;5074245;28;19908;-79
2022/04/25 07:37:04;;;;;;;;;;;;;;;;;;5106407;28;19920;-79
2022/04/25 07:39:30;;;;;;;;;;;14.80;99.90;;;;;;5073838;28;19912;-79
2022/04/25 07:41:58;;;;;;;;;;;15.00;99.90;;;;;;5072034;28;19912;-79
2022/04/25 07:44:27;;;;;;;;;;;15.10;99.90;;;;;;5073503;28;19920;-79
2022/04/25 07:46:53;;;;;;;;;;;15.30;99.90;;;;;;5072275;28;19915;-79
2022/04/25 07:49:18;;;;;;;;;;;15.50;99.90;;;;;;5073293;28;19908;-78
2022/04/25 07:51:44;;;;;;;;;;;15.60;99.90;;;;;;5073156;28;19912;-78
2022/04/25 07:54:10;;;;;;;;;;;15.80;99.90;;;;;;5073194;28;19913;-78
2022/04/25 07:56:35;;;;;;;;;;;16.00;99.90;;;;;;5073573;28;19909;-78
2022/04/25 07:59:01;;;;;;;;;;;16.00;99.90;;;;;;5105955;28;20351;-78
2022/04/25 08:01:30;;;;;;;;;;;16.00;99.90;;;;;;5071918;28;20363;-78
2022/04/25 08:03:56;;;;;;;;;;;16.10;99.90;;;;;;5073602;28;19913;-78
2022/04/25 08:06:22;;;;;;;;;;;16.20;99.90;;;;;;5073168;28;19916;-77
2022/04/25 08:08:48;;;;;;;;;;;16.30;99.90;;;;;;5073073;28;19948;-79
2022/04/25 08:11:14;;;;;;;;;;;16.20;99.90;;;;;;5072856;28;19955;-78
2022/04/25 08:19:07;;;;;;;;;;;15.90;99.90;;;;;;5071430;28;19919;-73
2022/04/25 08:21:33;;;;;;;;;;;15.90;99.90;;;;;;5072777;28;19916;-74
2022/04/25 08:23:58;;;;;;;;;;;15.90;99.90;;;;;;5072853;28;20271;-74
2022/04/25 08:26:25;;;;;;;;;;;15.90;99.90;;;;;;5070149;28;19944;-74
2022/04/25 08:28:51;;;;;;;;;;;15.80;99.90;;;;;;5072751;28;20351;-68
2022/04/25 08:31:17;;;;;;;;;;;15.80;99.90;;;;;;5072745;28;20003;-68
2022/04/25 08:33:45;;;;;;;;;;;15.90;99.90;;;;;;5073199;28;20193;-70
2022/04/25 08:36:12;;;;;;;;;;;15.90;99.90;;;;;;5072331;28;19998;-70
2022/04/25 08:38:40;;;;;;;;;;;15.90;99.90;;;;;;5072176;28;19913;-70
2022/04/25 08:41:06;;;;;;;;;;;16.30;99.90;;;;;;5072371;28;20003;-73
2022/04/25 08:43:32;;;;;;;;;;;16.50;99.90;;;;;;5072545;28;19909;-72
2022/04/25 08:45:58;;;;;;;;;;;16.70;99.90;;;;;;5070886;28;19913;-72
2022/04/25 08:48:25;;;;;;;;;;;16.90;99.90;;;;;;5070546;28;19912;-83
2022/04/25 08:50:51;;;;;;;;;;;17.00;99.90;;;;;;5069679;28;19909;-83
2022/04/25 08:53:17;;;;;;;;;;;17.00;99.90;;;;;;5070006;28;19909;-83
2022/04/25 08:55:45;;;;;;;;;;;16.90;99.90;;;;;;5097339;28;19913;-83
2022/04/25 08:58:11;;;;;;;;;;;16.70;99.90;;;;;;5074481;28;20359;-83
2022/04/25 09:00:37;;;;;;;;;;;;;;;;;;5070517;28;19916;-83
2022/04/25 09:03:03;;;;;;;;;;;16.10;99.90;;;;;;5075893;28;20275;-82
2022/04/25 09:05:28;;;;;;;;;;;16.10;99.90;;;;;;5076376;28;19958;-82
2022/04/25 09:07:54;;;;;;;;;;;16.20;99.90;;;;;;5076150;28;19913;-84
2022/04/25 09:10:20;;;;;;;;;;;16.30;99.90;;;;;;5073166;28;19919;-85
2022/04/25 09:12:47;;;;;;;;;;;16.40;99.90;;;;;;5075696;28;20360;-82
2022/04/25 09:15:16;;;;;;;;;;;16.40;99.90;;;;;;5074310;28;19920;-82
2022/04/25 09:17:42;;;;;;;;;;;16.60;99.90;;;;;;5066096;28;19958;-77
2022/04/25 09:20:08;;;;;;;;;;;;;;;;;;5077083;28;20050;-75
2022/04/25 09:22:35;;;;;;;;;;;17.00;99.90;;;;;;5075860;28;20011;-76
2022/04/25 09:25:05;;;;;;;;;;;17.10;99.90;;;;;;5075544;28;20356;-76
2022/04/25 09:27:31;;;;;;;;;;;17.30;99.90;;;;;;5075902;28;19999;-76
2022/04/25 09:30:10;;;;;;;;;;;17.40;99.90;;;;;;5076082;28;19999;-76
2022/04/25 09:32:36;;;;;;;;;;;17.70;99.90;;;;;;5075658;28;19912;-76
2022/04/25 09:35:21;;;;;;;;;;;18.00;99.90;;;;;;5076152;28;19913;-75
2022/04/25 09:37:47;;;;;;;;;;;18.20;99.90;;;;;;5075205;28;19998;-76
2022/04/25 09:40:17;;;;;;;;;;;18.20;99.90;;;;;;5075872;28;20344;-75
2022/04/25 09:42:43;;;;;;;;;;;18.10;99.90;;;;;;5075604;28;19920;-75
2022/04/25 09:45:08;;;;;;;;;;;18.10;99.90;;;;;;5075421;28;20383;-75
2022/04/25 09:47:36;;;;;;;;;;;18.00;99.90;;;;;;5075083;28;19962;-75
2022/04/25 09:50:03;;;;;;;;;;;18.00;99.90;;;;;;5074278;28;20279;-75
2022/04/25 09:52:29;;;;;;;;;;;18.10;99.90;;;;;;5075546;28;20003;-75
2022/04/25 09:54:58;;;;;;;;;;;18.00;99.90;;;;;;5072290;28;19917;-75
2022/04/25 09:57:32;;;;;;;;;;;18.30;99.90;;;;;;5070227;28;19909;-75
2022/04/25 09:59:58;;;;;;;;;;;18.40;99.90;;;;;;5074428;28;19962;-76
2022/04/25 10:02:23;;;;;;;;;;;18.60;99.90;;;;;;5075200;28;19912;-75
2022/04/25 10:04:49;;;;;;;;;;;18.50;99.90;;;;;;5073798;28;19908;-75
2022/04/25 10:07:15;;;;;;;;;;;19.10;99.90;;;;;;5073987;28;19983;-75
2022/04/25 10:09:43;;;;;;;;;;;19.10;99.90;;;;;;5074852;28;19912;-75
2022/04/25 10:12:09;;;;;;;;;;;19.20;99.90;;;;;;5068819;28;19989;-75
2022/04/25 10:14:36;;;;;;;;;;;19.10;99.90;;;;;;5075220;28;19920;-75
2022/04/25 10:17:02;;;;;;;;;;;19.30;99.90;;;;;;5075012;28;20360;-75
2022/04/25 10:19:27;;;;;;;;;;;19.40;99.90;;;;;;5075470;28;19915;-74
2022/04/25 10:21:54;;;;;;;;;;;19.60;99.90;;;;;;5072414;28;19967;-74
2022/04/25 10:24:19;;;;;;;;;;;19.70;99.90;;;;;;5073676;28;20344;-74
2022/04/25 10:26:48;;;;;;;;;;;19.90;99.90;;;;;;5074463;28;19912;-74
2022/04/25 10:29:16;;;;;;;;;;;20.00;99.90;;;;;;5074816;28;20352;-75
2022/04/25 10:31:43;;;;;;;;;;;20.00;99.90;;;;;;5074241;28;19919;-75
2022/04/25 10:34:09;;;;;;;;;;;20.00;99.90;;;;;;5084854;28;20301;-73
2022/04/25 10:36:38;;;;;;;;;;;20.00;99.90;;;;;;5076102;28;19952;-75
2022/04/25 10:39:10;;;;;;;;;;;20.00;99.90;;;;;;5072414;28;20363;-75
2022/04/25 10:44:19;;;;;;;;;;;;;;;;;;5074262;28;20011;-72
2022/04/25 10:47:03;;;;;;;;;;;20.10;99.90;;;;;;5073831;28;20003;-72
2022/04/25 10:49:45;;;;;;;;;;;20.10;99.90;;;;;;5074352;28;19912;-82
2022/04/25 10:52:30;;;;;;;;;;;20.10;99.90;;;;;;5074530;28;19999;-81
2022/04/25 10:55:13;;;;;;;;;;;20.30;99.90;;;;;;5068433;28;19912;-80
2022/04/25 10:57:58;;;;;;;;;;;20.30;99.90;;;;;;5072505;28;19963;-82
2022/04/25 11:00:42;;;;;;;;;;;20.60;99.90;;;;;;5071197;28;19919;-82
2022/04/25 11:03:07;;;;;;;;;;;20.70;99.90;;;;;;5089639;28;20356;-81
2022/04/25 11:05:34;;;;;;;;;;;20.50;99.90;;;;;;5068636;28;19915;-72
2022/04/25 11:08:18;;;;;;;;;;;20.70;99.90;;;;;;5063837;28;19954;-72
2022/04/25 11:11:02;;;;;;;;;;;20.90;99.90;;;;;;5070160;28;19921;-72
2022/04/25 11:13:46;;;;;;;;;;;21.10;99.90;;;;;;5069662;28;20003;-72
2022/04/25 11:16:23;;;;;;;;;;;21.10;99.90;;;;;;5072837;28;20371;-73
2022/04/25 11:19:09;;;;;;;;;;;21.20;99.90;;;;;;5072367;28;19958;-72
2022/04/25 11:21:35;;;;;;;;;;;21.20;99.90;;;;;;5073271;28;19927;-72
2022/04/25 11:24:02;;;;;;;;;;;20.90;99.90;;;;;;5073734;28;19958;-81
2022/04/25 11:26:29;;;;;;;;;;;20.70;99.90;;;;;;5073813;28;19999;-82
2022/04/25 11:28:54;;;;;;;;;;;20.70;99.90;;;;;;5073394;28;19921;-81
2022/04/25 11:31:21;;;;;;;;;;;20.60;99.90;;;;;;5073226;28;20374;-85
2022/04/25 11:33:47;;;;;;;;;;;20.60;99.90;;;;;;5071978;28;19913;-81
2022/04/25 11:36:13;;;;;;;;;;;20.40;99.90;;;;;;5074001;28;19913;-69
2022/04/25 11:41:24;;;;;;;;;;;20.10;99.90;;;;;;5073495;28;19958;-69
2022/04/25 11:43:49;;;;;;;;;;;20.10;99.90;;;;;;5073289;28;20325;-69
2022/04/25 11:46:15;;;;;;;;;;;20.50;99.90;;;;;;5073717;28;20309;-69
2022/04/25 11:48:40;;;;;;;;;;;20.50;99.90;;;;;;5073078;28;19912;-69
2022/04/25 11:51:06;;;;;;;;;;;20.60;99.90;;;;;;5073430;28;19915;-69
2022/04/25 11:53:32;;;;;;;;;;;20.60;99.90;;;;;;5072729;28;19912;-69
2022/04/25 11:56:01;;;;;;;;;;;20.70;99.90;;;;;;5072662;28;19919;-69
2022/04/25 11:58:29;;;;;;;;;;;20.70;99.90;;;;;;5073194;28;19944;-69
2022/04/25 12:00:55;;;;;;;;;;;20.60;99.90;;;;;;5073290;28;19912;-69
2022/04/25 12:03:23;;;;;;;;;;;20.20;99.90;;;;;;5073238;28;19913;-69
2022/04/25 12:05:49;;;;;;;;;;;19.70;99.90;;;;;;5069913;28;20325;-81
2022/04/25 12:16:35;;;;;;;;;;;19.90;99.90;;;;;;5071267;28;20026;-74
2022/04/25 12:19:06;;;;;;;;;;;20.00;99.90;;;;;;5073131;28;20370;-76
2022/04/25 12:21:32;;;;;;;;;;;20.20;99.90;;;;;;5072779;28;19916;-76
2022/04/25 12:23:57;;;;;;;;;;;20.30;99.90;;;;;;5072924;28;19944;-76
2022/04/25 12:26:27;;;;;;;;;;;20.40;99.90;;;;;;5071255;28;20004;-75
2022/04/25 12:28:59;;;;;;;;;;;20.60;99.90;;;;;;5076982;28;19908;-75
2022/04/25 12:31:26;;;;;;;;;;;20.80;99.90;;;;;;5077728;28;19916;-75
2022/04/25 12:40:02;;;;;;;;;;;21.50;99.90;;;;;;5072015;28;19966;-80
2022/04/25 12:42:46;;;;;;;;;;;21.60;99.90;;;;;;5077766;28;19913;-80
2022/04/25 12:45:14;;;;;;;;;;;21.30;99.90;;;;;;5077099;28;19916;-81
2022/04/25 12:47:53;;;;;;;;;;;21.30;99.90;;;;;;5066304;28;19912;-80
2022/04/25 12:50:42;;;;;;;;;;;20.90;99.90;;;;;;5076431;28;19930;-78
2022/04/25 12:53:15;;;;;;;;;;;20.80;99.90;;;;;;5075983;28;19912;-79
2022/04/25 12:55:48;;;;;;;;;;;20.70;99.90;;;;;;5076705;28;19908;-80
2022/04/25 12:58:15;;;;;;;;;;;20.60;99.90;;;;;;5076593;28;20360;-80
2022/04/25 13:00:47;;;;;;;;;;;20.40;99.90;;;;;;5076440;28;19916;-80
2022/04/25 13:06:16;;;;;;;;;;;20.20;99.90;;;;;;5076808;28;20003;-75
2022/04/25 13:08:41;;;;;;;;;;;20.10;99.90;;;;;;5076984;28;19939;-76
2022/04/25 13:11:07;;;;;;;;;;;;;;;;;;5076987;28;20364;-79
2022/04/25 13:13:39;;;;;;;;;;;20.10;99.90;;;;;;5071599;28;19909;-85
2022/04/25 13:16:26;;;;;;;;;;;20.10;99.90;;;;;;5075198;28;19932;-80
2022/04/25 13:18:53;;;;;;;;;;;20.20;99.90;;;;;;5076813;28;19908;-79
2022/04/25 13:21:27;;;;;;;;;;;20.40;99.90;;;;;;5075891;28;19916;-79
2022/04/25 13:24:03;;;;;;;;;;;20.70;99.90;;;;;;5076056;28;20352;-79
2022/04/25 13:26:29;;;;;;;;;;;20.90;99.90;;;;;;5075605;28;19913;-81
2022/04/25 13:28:57;;;;;;;;;;;20.90;99.90;;;;;;5071846;28;20363;-76
2022/04/25 13:31:27;;;;;;;;;;;21.00;99.90;;;;;;5076845;28;19958;-78
2022/04/25 13:33:57;;;;;;;;;;;21.10;99.90;;;;;;5076097;28;19966;-78
2022/04/25 13:36:27;;;;;;;;;;;21.30;99.90;;;;;;5077036;28;19916;-78
2022/04/25 13:39:09;;;;;;;;;;;21.60;99.90;;;;;;5076400;28;19909;-78
2022/04/25 13:41:34;;;;;;;;;;;21.60;99.90;;;;;;5061152;28;19928;-76
2022/04/25 13:44:04;;;;;;;;;;;21.40;99.90;;;;;;5065600;28;20287;-76
2022/04/25 13:46:30;;;;;;;;;;;21.40;99.90;;;;;;5065410;28;20364;-76
2022/04/25 13:48:57;;;;;;;;;;;21.60;99.90;;;;;;5074114;28;20007;-77
2022/04/25 13:51:33;;;;;;;;;;;21.50;99.90;;;;;;5076796;28;19908;-75
2022/04/25 13:54:09;;;;;;;;;;;21.50;99.90;;;;;;5065157;28;19912;-75
2022/04/25 13:56:34;;;;;;;;;;;21.60;99.90;;;;;;5065973;28;19920;-75
2022/04/25 13:59:00;;;;;;;;;;;21.60;99.90;;;;;;5069493;28;19919;-75
2022/04/25 14:01:26;;;;;;;;;;;21.20;99.90;;;;;;5076364;28;19927;-75
2022/04/25 14:03:57;;;;;;;;;;;20.90;99.90;;;;;;5076385;28;20000;-75
2022/04/25 14:06:22;;;;;;;;;;;20.90;99.90;;;;;;5068615;28;19912;-75
2022/04/25 14:08:48;;;;;;;;;;;20.50;99.90;;;;;;5076436;28;19912;-76
2022/04/25 14:11:13;;;;;;;;;;;20.60;99.90;;;;;;5076259;28;19921;-76
2022/04/25 14:13:45;;;;;;;;;;;20.50;99.90;;;;;;5076462;28;19909;-77
2022/04/25 14:16:15;;;;;;;;;;;20.60;99.90;;;;;;5071586;28;19913;-77
2022/04/25 14:19:03;;;;;;;;;;;20.70;99.90;;;;;;5064156;28;19951;-77
2022/04/25 14:21:33;;;;;;;;;;;20.50;99.90;;;;;;5074310;28;19961;-76
2022/04/25 14:24:00;;;;;;;;;;;20.40;99.90;;;;;;5076179;28;20355;-76
2022/04/25 14:26:27;;;;;;;;;;;20.60;99.90;;;;;;5072344;28;19913;-76
2022/04/25 14:28:53;;;;;;;;;;;20.80;99.90;;;;;;5063315;28;19965;-76
2022/04/25 14:31:20;;;;;;;;;;;20.80;99.90;;;;;;5076102;28;20253;-76
2022/04/25 14:33:46;;;;;;;;;;;21.00;99.90;;;;;;5076018;28;20270;-76
2022/04/25 14:36:11;;;;;;;;;;;21.20;99.90;;;;;;5070945;28;19913;-76
2022/04/25 14:38:45;;;;;;;;;;;21.30;99.90;;;;;;5056474;28;19913;-76
2022/04/25 14:41:10;;;;;;;;;;;21.40;99.90;;;;;;5075258;28;19916;-76
2022/04/25 14:43:39;;;;;;;;;;;21.70;99.90;;;;;;5075611;28;19909;-77
2022/04/25 14:46:10;;;;;;;;;;;22.10;99.90;;;;;;5107901;28;19915;-77
2022/04/25 14:48:39;;;;;;;;;;;22.60;99.90;;;;;;5070966;28;19913;-76
2022/04/25 14:57:03;;;;;;;;;;;23.20;99.90;;;;;;5067753;28;19920;-77
2022/04/25 14:59:29;;;;;;;;;;;23.20;99.90;;;;;;5043971;28;19913;-77
2022/04/25 15:01:58;;;;;;;;;;;22.60;99.90;;;;;;5063610;28;19921;-77
2022/04/25 15:04:27;;;;;;;;;;;21.90;99.90;;;;;;5063387;28;20359;-77
2022/04/25 15:07:09;;;;;;;;;;;21.20;99.90;;;;;;5055626;28;20015;-76
2022/04/25 15:09:46;;;;;;;;;;;20.20;99.90;;;;;;5056817;28;19920;-78
2022/04/25 15:12:12;;;;;;;;;;;19.50;99.90;;;;;;5035179;28;19973;-76
2022/04/25 15:14:45;;;;;;;;;;;19.00;99.90;;;;;;5052777;28;19920;-77
2022/04/25 15:17:10;;;;;;;;;;;18.80;99.90;;;;;;5061547;28;19915;-77
2022/04/25 15:19:37;;;;;;;;;;;18.70;99.90;;;;;;5058379;28;19913;-77
2022/04/25 15:22:03;;;;;;;;;;;18.40;99.90;;;;;;5064048;28;19920;-77
2022/04/25 15:24:29;;;;;;;;;;;18.40;99.90;;;;;;5052366;28;19913;-77
2022/04/25 15:26:57;;;;;;;;;;;18.00;99.90;;;;;;5061987;28;20275;-76
2022/04/25 15:29:45;;;;;;;;;;;17.70;99.90;;;;;;5106518;28;20046;-76
2022/04/25 15:32:27;;;;;;;;;;;17.70;99.90;;;;;;5074955;28;20042;-77